Aeroporto :
LOGIN :

Iscrizione | Disclaimer

   EN    FR    IT 

 










Sommario :    VFR   VFR Marginale   IFR   IFR Intensivo   IFR Molto Intensivo
Visibilità : 
Base nubi : 
>= 8 km
>= 3000ft
5 / 8 km
1000 / 3000 ft
1500m / 5 km
500 / 1000 ft
800 / 1500m
200 / 500 ft
< 800m
< 200 ft
Simboli :   Temporali  Nebbia  Neve Forte  Precipitazioni Forti  Vento > 20 kt
SIGMETs :   Varie  Temporali  Ghiacco  Turbolenza  Onda orograficha  Ceneri Vulcaniche







- Altitudine del aeroporto : 218 ft
- Codice IATA : LBG
- Carte del aeroporto


LFPB - Paris / Le Bourget

ULTIMO METAR :
  • 200830Z AUTO 33005KT 280V020 9999 BKN014/// BKN020/// BKN110/// ///TCU 14/11 Q1011 BECMG BKN030

METARs OBSOLETI :
  • 200800Z AUTO VRB03KT 7000 BKN012/// OVC019/// ///TCU 12/10 Q1011 BECMG BKN030
  • 200730Z AUTO 32004KT 270V360 6000 -RA BKN012/// OVC018/// ///CB 12/10 Q1011 BECMG BKN030
  • 200700Z AUTO 32005KT 280V350 8000 BKN012/// OVC017/// ///CB 12/10 Q1010 TEMPO BKN010
  • 200630Z AUTO 31005KT 270V360 8000 BKN012/// OVC019/// ///CB 12/10 Q1010 TEMPO BKN010
  • 200600Z AUTO 30004KT 240V350 9000 -DZ OVC011/// ///CB 11/10 Q1010 TEMPO BKN010

TAF TAF LFPB
Valido dal 20 a 06 ore il 21 a 06 ore UTC


200500Z 2006/2106 33008KT 9999 BKN030
TEMPO 2006/2009 BKN010
PROB40
TEMPO 2011/2016 SCT035TCU
BECMG 2016/2018 CAVOK
ATIS : +33 1 48 62 43 92
Nessun NOTAM noto per questo aeroporto.



MetMap, La meteo Aeronautica in un colpo d'occhio ! - Copyright ORBIFLY Dicembre 2007 - Disclaimer

ORBIFLY MET'MAP TEAM :

Programmazione e sviluppo : Alexandra Zaïnal
Concezione e sviluppo : Baudouin d'Aumeries
Co-Programmazione e sviluppo : Marc-Olivier Méhu
Supporto tecnico e logistico : Manuel Goepfert
Aiuto per la traduzione : Arnaldo La Scala

Contatto : metmap@orbifly.com




FONTI E CREDITI :

   NOAA